Terminal Aerodrome Forecast
Issued by NWS

Home | Current Version | Previous Version | Text Only | Print | Product List | Glossary On
Versions: 1 2 3 4 5 6 7 8 9 10 11 12 13 14
000
FTUS43 KAPX 231741
TAFTVC
TAF
KTVC 231741Z 2318/2418 03006KT P6SM OVC010
     FM232100 VRB04KT P6SM VCSH OVC020
     FM240100 04005KT P6SM OVC025
     FM240600 03003KT 6SM -SHRA OVC015
     FM241500 01006KT P6SM BKN025=

USA.gov is the U.S. government's official web portal to all federal, state and local government web resources and services.